Time;durP1;ratioP1;P1;durP2;ratioP2;P2;SDS_P1;SDS_P2;PMS_P1;PMS_P2;Temp;Humidity;BMP_temperature;BMP_pressure;BME280_temperature;BME280_humidity;BME280_pressure;Samples;Min_cycle;Max_cycle;Signal;HPM_P1;HPM_P2
2023/05/30 00:00:28;;;;;;;1.50;1.00;;;13.90;80.10;;;;;;5087502;28;20591;-77
2023/05/30 00:02:56;;;;;;;1.50;1.00;;;13.90;79.90;;;;;;5081169;28;20568;-76
2023/05/30 00:05:22;;;;;;;1.50;1.10;;;13.90;80.30;;;;;;5086153;28;20513;-77
2023/05/30 00:07:49;;;;;;;1.47;1.00;;;13.80;80.30;;;;;;5081538;28;20510;-77
2023/05/30 00:10:16;;;;;;;1.50;0.90;;;13.80;80.30;;;;;;5089861;28;21232;-76
2023/05/30 00:12:46;;;;;;;1.50;1.00;;;13.80;80.50;;;;;;5092339;28;20476;-77
2023/05/30 00:15:13;;;;;;;1.50;1.00;;;13.80;80.50;;;;;;5083156;28;20540;-77
2023/05/30 00:17:41;;;;;;;1.50;1.00;;;13.70;81.30;;;;;;5090291;28;21064;-77
2023/05/30 00:20:09;;;;;;;1.40;1.00;;;13.70;81.70;;;;;;5088376;28;20488;-76
2023/05/30 00:22:37;;;;;;;1.43;1.00;;;13.70;82.10;;;;;;5078024;28;20472;-77
2023/05/30 00:25:05;;;;;;;1.50;1.10;;;13.60;82.00;;;;;;5090406;28;20452;-76
2023/05/30 00:27:32;;;;;;;1.47;1.00;;;13.60;82.00;;;;;;5075299;28;20502;-77
2023/05/30 00:29:58;;;;;;;1.50;1.00;;;13.50;82.20;;;;;;5087627;28;22099;-75
2023/05/30 00:32:25;;;;;;;1.50;1.00;;;13.50;82.20;;;;;;5088920;28;20534;-77
2023/05/30 00:34:53;;;;;;;1.50;1.10;;;13.50;82.80;;;;;;5090607;28;20465;-76
2023/05/30 00:37:20;;;;;;;1.50;1.00;;;13.40;82.60;;;;;;5080723;28;20488;-77
2023/05/30 00:39:47;;;;;;;1.50;1.00;;;13.40;82.80;;;;;;5090394;28;20480;-76
2023/05/30 00:42:14;;;;;;;1.50;1.00;;;13.30;83.40;;;;;;5076078;28;20473;-77
2023/05/30 00:44:40;;;;;;;1.47;1.00;;;13.30;83.70;;;;;;5083920;28;20764;-77
2023/05/30 00:47:07;;;;;;;1.50;1.00;;;13.30;83.10;;;;;;5075731;28;20484;-77
2023/05/30 00:49:35;;;;;;;1.50;1.00;;;13.20;83.40;;;;;;5082805;28;20491;-76
2023/05/30 00:52:03;;;;;;;1.50;1.00;;;13.20;83.60;;;;;;5071645;28;20481;-76
2023/05/30 00:54:30;;;;;;;1.50;1.00;;;13.10;83.20;;;;;;5087670;28;20463;-76
2023/05/30 00:56:57;;;;;;;1.47;1.00;;;13.10;83.20;;;;;;5074675;28;20855;-77
2023/05/30 00:59:24;;;;;;;1.47;1.00;;;13.10;83.30;;;;;;5080986;28;20461;-77
2023/05/30 01:01:51;;;;;;;1.47;1.00;;;13.10;83.80;;;;;;5080087;28;20476;-77
2023/05/30 01:04:18;;;;;;;1.50;1.10;;;13.00;84.40;;;;;;5088346;28;20468;-77
2023/05/30 01:06:46;;;;;;;1.40;1.00;;;13.00;84.80;;;;;;5072110;28;20476;-76
2023/05/30 01:09:15;;;;;;;1.50;1.00;;;12.90;84.50;;;;;;5088450;28;20456;-76
2023/05/30 01:11:54;;;;;;;1.50;1.10;;;12.80;84.60;;;;;;5079142;28;20498;-77
2023/05/30 01:14:25;;;;;;;1.43;1.00;;;12.80;84.80;;;;;;5093185;28;20464;-76
2023/05/30 01:16:58;;;;;;;1.47;1.10;;;12.70;84.70;;;;;;5076336;28;20504;-76
2023/05/30 01:19:51;;;;;;;1.50;1.10;;;12.70;85.20;;;;;;5083103;28;20468;-77
2023/05/30 01:22:32;;;;;;;1.50;1.00;;;12.60;85.30;;;;;;5077780;28;20484;-77
2023/05/30 01:25:13;;;;;;;1.50;1.10;;;12.60;85.40;;;;;;5085552;28;20525;-77
2023/05/30 01:27:54;;;;;;;1.50;1.00;;;12.60;85.90;;;;;;5074000;28;20522;-76
2023/05/30 01:30:25;;;;;;;1.50;1.10;;;12.50;86.00;;;;;;5087640;28;20483;-76
2023/05/30 01:32:52;;;;;;;1.50;1.10;;;12.50;86.80;;;;;;5075726;28;20472;-76
2023/05/30 01:35:23;;;;;;;1.50;1.10;;;12.50;87.10;;;;;;5086213;28;20457;-76
2023/05/30 01:37:50;;;;;;;1.50;1.10;;;12.40;87.40;;;;;;5088273;28;20487;-76
2023/05/30 01:40:23;;;;;;;1.50;1.10;;;12.40;87.70;;;;;;5074693;28;20493;-77
2023/05/30 01:42:57;;;;;;;1.47;1.00;;;12.30;87.90;;;;;;5087610;28;20542;-77
2023/05/30 01:45:31;;;;;;;1.50;1.07;;;12.30;87.90;;;;;;5086040;28;20452;-76
2023/05/30 01:48:01;;;;;;;1.47;1.10;;;12.20;88.60;;;;;;5071517;28;20476;-76
2023/05/30 01:50:37;;;;;;;1.47;1.07;;;12.20;89.10;;;;;;5082699;28;21024;-77
2023/05/30 01:53:07;;;;;;;1.50;1.10;;;12.20;89.30;;;;;;5080813;28;21199;-77
2023/05/30 01:55:36;;;;;;;1.50;1.10;;;12.10;89.20;;;;;;5082995;28;20986;-77
2023/05/30 01:58:06;;;;;;;1.50;1.10;;;12.10;89.80;;;;;;5079551;28;20480;-77
2023/05/30 02:00:33;;;;;;;1.43;1.10;;;12.10;89.70;;;;;;5084161;28;20472;-77
2023/05/30 02:02:59;;;;;;;1.50;1.10;;;12.00;89.80;;;;;;5074036;28;20986;-77
2023/05/30 02:05:26;;;;;;;1.50;1.07;;;12.00;89.60;;;;;;5088019;28;20461;-77
2023/05/30 02:07:53;;;;;;;1.47;1.03;;;12.10;90.20;;;;;;5081798;28;20559;-77
2023/05/30 02:10:20;;;;;;;1.50;1.10;;;12.00;91.30;;;;;;5082713;28;20477;-77
2023/05/30 02:12:47;;;;;;;1.50;1.10;;;12.00;91.20;;;;;;5091997;28;20480;-77
2023/05/30 02:15:15;;;;;;;1.50;1.10;;;11.90;91.90;;;;;;5087885;28;20843;-76
2023/05/30 02:17:41;;;;;;;1.50;1.20;;;11.90;91.80;;;;;;5079002;28;20468;-76
2023/05/30 02:20:09;;;;;;;1.43;1.00;;;11.90;92.40;;;;;;5085390;28;20479;-77
2023/05/30 02:22:36;;;;;;;1.50;1.10;;;11.80;92.40;;;;;;5085857;28;20566;-76
2023/05/30 02:25:03;;;;;;;1.50;1.10;;;11.80;92.40;;;;;;5087276;28;20456;-77
2023/05/30 02:27:29;;;;;;;1.47;1.00;;;11.80;92.70;;;;;;5078365;28;20543;-77
2023/05/30 02:29:56;;;;;;;1.50;1.20;;;11.70;93.00;;;;;;5084766;28;20473;-77
2023/05/30 02:32:25;;;;;;;1.50;1.10;;;11.70;93.30;;;;;;5080034;28;20477;-76
2023/05/30 02:34:51;;;;;;;1.50;1.10;;;11.60;93.60;;;;;;5080447;28;20457;-76
2023/05/30 02:37:18;;;;;;;1.50;1.10;;;11.60;93.50;;;;;;5077099;28;20611;-77
2023/05/30 02:39:45;;;;;;;1.50;1.10;;;11.60;93.80;;;;;;5085196;28;20479;-77
2023/05/30 02:42:12;;;;;;;1.50;1.17;;;11.50;94.10;;;;;;5086788;28;20483;-77
2023/05/30 02:44:39;;;;;;;1.50;1.10;;;11.50;93.90;;;;;;5087596;28;20464;-77
2023/05/30 02:47:06;;;;;;;1.50;1.10;;;11.40;94.20;;;;;;5080267;28;20476;-77
2023/05/30 02:49:35;;;;;;;1.50;1.00;;;11.40;94.70;;;;;;5079332;28;21035;-77
2023/05/30 02:52:01;;;;;;;1.50;1.10;;;11.40;94.80;;;;;;5080754;28;20468;-76
2023/05/30 02:54:31;;;;;;;1.50;1.00;;;11.30;94.90;;;;;;5089231;28;20448;-76
2023/05/30 02:56:58;;;;;;;1.47;1.07;;;11.30;95.50;;;;;;5074192;28;20560;-77
2023/05/30 02:59:25;;;;;;;1.50;1.10;;;11.30;95.60;;;;;;5085689;28;20460;-76
2023/05/30 03:01:52;;;;;;;1.50;1.10;;;11.20;95.70;;;;;;5079411;28;20518;-77
2023/05/30 03:04:18;;;;;;;1.47;1.00;;;11.20;95.80;;;;;;5088784;28;20873;-76
2023/05/30 03:06:49;;;;;;;1.50;1.10;;;11.20;95.90;;;;;;5083238;28;20916;-77
2023/05/30 03:09:16;;;;;;;1.50;1.33;;;11.20;96.20;;;;;;5085625;28;20958;-77
2023/05/30 03:11:43;;;;;;;1.50;1.10;;;11.10;96.70;;;;;;5082641;28;20499;-77
2023/05/30 03:14:09;;;;;;;1.50;1.10;;;11.10;97.00;;;;;;5090494;28;20460;-77
2023/05/30 03:16:36;;;;;;;1.50;1.10;;;11.00;96.90;;;;;;5071832;28;20550;-77
2023/05/30 03:19:03;;;;;;;1.50;1.10;;;11.00;97.40;;;;;;5090823;28;20461;-77
2023/05/30 03:21:30;;;;;;;1.50;1.20;;;11.00;98.00;;;;;;5120237;22;20902;-83
2023/05/30 03:23:59;;;;;;;1.50;1.10;;;11.00;97.80;;;;;;5092333;28;20558;-83
2023/05/30 03:26:27;;;;;;;1.50;1.30;;;11.00;97.80;;;;;;5083807;28;20537;-82
2023/05/30 03:28:54;;;;;;;1.50;1.20;;;11.00;98.20;;;;;;5093682;28;20533;-84
2023/05/30 03:31:20;;;;;;;1.50;1.17;;;10.90;98.20;;;;;;5089511;28;20498;-82
2023/05/30 03:33:47;;;;;;;1.50;1.10;;;10.90;98.20;;;;;;5100488;27;21020;-78
2023/05/30 03:36:14;;;;;;;1.50;1.20;;;10.90;98.20;;;;;;5087644;28;20483;-83
2023/05/30 03:38:41;;;;;;;1.50;1.23;;;10.90;98.20;;;;;;5103010;28;20488;-83
2023/05/30 03:41:09;;;;;;;1.50;1.10;;;10.80;98.20;;;;;;5086769;28;20490;-82
2023/05/30 03:43:36;;;;;;;1.50;1.20;;;10.80;98.20;;;;;;5107998;28;20452;-83
2023/05/30 03:46:03;;;;;;;1.50;1.20;;;10.70;98.20;;;;;;5086667;28;20967;-81
2023/05/30 03:48:30;;;;;;;1.50;1.10;;;10.70;98.20;;;;;;5102861;28;20962;-83
2023/05/30 03:50:57;;;;;;;1.50;1.20;;;10.70;98.20;;;;;;5084166;28;20480;-82
2023/05/30 03:53:23;;;;;;;1.47;1.10;;;10.70;98.20;;;;;;5106792;28;20835;-82
2023/05/30 03:55:50;;;;;;;1.50;1.17;;;10.70;98.20;;;;;;5083032;28;20457;-83
2023/05/30 03:58:28;;;;;;;1.47;1.10;;;10.70;98.20;;;;;;5106589;28;20461;-83
2023/05/30 04:00:56;;;;;;;1.50;1.20;;;10.70;98.20;;;;;;5076976;28;20476;-81
2023/05/30 04:03:24;;;;;;;1.50;1.20;;;10.70;98.20;;;;;;5090396;28;20480;-81
2023/05/30 04:05:51;;;;;;;1.50;1.10;;;10.70;98.20;;;;;;5080678;28;20491;-83
2023/05/30 04:08:18;;;;;;;1.50;1.10;;;10.70;98.20;;;;;;5105385;27;20468;-83
2023/05/30 04:10:45;;;;;;;1.50;1.10;;;10.70;98.20;;;;;;5091514;28;20476;-83
2023/05/30 04:13:11;;;;;;;1.43;1.10;;;10.70;98.20;;;;;;5081632;28;20484;-82
2023/05/30 04:15:40;;;;;;;1.47;1.00;;;10.70;98.20;;;;;;5092115;28;20452;-84
2023/05/30 04:18:07;;;;;;;1.50;1.20;;;10.70;98.20;;;;;;5101277;28;20471;-82
2023/05/30 04:20:34;;;;;;;1.43;1.10;;;10.70;98.20;;;;;;5099875;28;20487;-83
2023/05/30 04:23:01;;;;;;;1.47;1.10;;;10.70;98.20;;;;;;5095611;28;20556;-85
2023/05/30 04:25:28;;;;;;;1.50;1.10;;;10.70;98.20;;;;;;5118801;28;20519;-84
2023/05/30 04:27:56;;;;;;;1.50;1.10;;;10.80;98.20;;;;;;5096678;27;20471;-82
2023/05/30 04:30:23;;;;;;;1.47;1.10;;;10.80;98.20;;;;;;5115628;28;20552;-86
2023/05/30 04:32:52;;;;;;;1.50;1.10;;;10.80;98.20;;;;;;5102127;28;20812;-82
2023/05/30 04:35:19;;;;;;;1.50;1.20;;;10.80;98.20;;;;;;5115677;28;20559;-84
2023/05/30 04:37:46;;;;;;;1.50;1.30;;;10.90;98.20;;;;;;5100965;28;20486;-84
2023/05/30 04:40:14;;;;;;;1.50;1.10;;;10.90;98.20;;;;;;5112289;28;20481;-84
2023/05/30 04:42:41;;;;;;;1.50;1.10;;;10.90;98.20;;;;;;5099682;28;20536;-81
2023/05/30 04:45:09;;;;;;;1.50;1.10;;;11.00;98.20;;;;;;5112775;28;20502;-82
2023/05/30 04:47:38;;;;;;;1.47;1.10;;;11.00;98.20;;;;;;5093484;28;20579;-81
2023/05/30 04:50:09;;;;;;;1.50;1.10;;;11.00;98.20;;;;;;5112316;28;20477;-84
2023/05/30 04:52:36;;;;;;;1.50;1.10;;;11.10;98.20;;;;;;5101911;27;20487;-79
2023/05/30 04:55:03;;;;;;;1.50;1.10;;;11.20;98.20;;;;;;5110314;28;20464;-81
2023/05/30 04:57:30;;;;;;;1.50;1.00;;;11.30;98.20;;;;;;5095727;28;20484;-84
2023/05/30 04:59:57;;;;;;;1.47;1.00;;;11.40;98.20;;;;;;5110076;28;20488;-82
2023/05/30 05:02:28;;;;;;;1.50;1.00;;;11.50;98.20;;;;;;5095445;28;20487;-82
2023/05/30 05:04:54;;;;;;;1.50;1.10;;;11.50;98.20;;;;;;5107083;28;20891;-82
2023/05/30 05:07:23;;;;;;;1.50;1.10;;;11.60;98.20;;;;;;5093531;28;20956;-81
2023/05/30 05:09:49;;;;;;;1.50;1.10;;;11.70;98.20;;;;;;5107735;28;20474;-83
2023/05/30 05:12:16;;;;;;;1.50;1.00;;;11.70;98.20;;;;;;5097661;28;20499;-80
2023/05/30 05:14:43;;;;;;;1.47;1.00;;;11.80;98.20;;;;;;5109296;28;20520;-81
2023/05/30 05:17:10;;;;;;;1.50;1.03;;;11.80;98.20;;;;;;5095010;28;20475;-81
2023/05/30 05:19:37;;;;;;;1.50;1.10;;;11.90;98.20;;;;;;5109502;28;20463;-80
2023/05/30 05:22:06;;;;;;;1.50;1.17;;;12.00;98.20;;;;;;5097501;28;20516;-80
2023/05/30 05:24:35;;;;;;;1.50;1.00;;;12.10;98.20;;;;;;5106918;28;20461;-81
2023/05/30 05:27:02;;;;;;;1.50;1.10;;;12.20;98.20;;;;;;5095103;28;20582;-81
2023/05/30 05:29:29;;;;;;;1.50;1.10;;;12.40;98.20;;;;;;5106569;28;20734;-81
2023/05/30 05:31:56;;;;;;;1.50;1.10;;;12.50;98.20;;;;;;5097206;28;20484;-82
2023/05/30 05:34:25;;;;;;;1.50;1.00;;;12.60;98.20;;;;;;5107374;28;20532;-85
2023/05/30 05:36:53;;;;;;;1.50;1.00;;;12.80;98.20;;;;;;5101436;28;20539;-83
2023/05/30 05:39:20;;;;;;;1.50;1.00;;;12.90;97.90;;;;;;5107599;28;20524;-82
2023/05/30 05:41:48;;;;;;;1.50;1.00;;;13.00;97.70;;;;;;5096779;28;20647;-82
2023/05/30 05:44:15;;;;;;;1.50;1.00;;;13.00;97.30;;;;;;5108522;28;20474;-81
2023/05/30 05:46:45;;;;;;;1.50;1.10;;;13.00;97.00;;;;;;5097025;28;20634;-85
2023/05/30 05:49:11;;;;;;;1.47;1.00;;;13.00;97.30;;;;;;5105483;28;20949;-83
2023/05/30 05:51:38;;;;;;;1.50;1.00;;;13.00;97.30;;;;;;5095198;28;20491;-82
2023/05/30 05:54:05;;;;;;;1.50;1.07;;;13.00;96.90;;;;;;5104483;28;20455;-81
2023/05/30 05:56:32;;;;;;;1.47;1.00;;;13.10;96.90;;;;;;5095502;28;20575;-82
2023/05/30 05:59:00;;;;;;;1.47;1.00;;;13.20;97.10;;;;;;5104079;28;20540;-82
2023/05/30 06:01:27;;;;;;;1.50;1.00;;;13.30;96.70;;;;;;5098732;28;20475;-81
2023/05/30 06:03:54;;;;;;;1.50;1.00;;;13.40;96.30;;;;;;5110056;28;20697;-83
2023/05/30 06:06:21;;;;;;;1.50;1.00;;;13.60;95.90;;;;;;5097005;28;20479;-81
2023/05/30 06:08:48;;;;;;;1.47;1.00;;;13.70;95.50;;;;;;5101281;28;20467;-81
2023/05/30 06:11:15;;;;;;;1.50;1.10;;;13.80;95.10;;;;;;5095506;28;20484;-81
2023/05/30 06:13:42;;;;;;;1.43;1.00;;;13.80;95.10;;;;;;5103282;28;20475;-83
2023/05/30 06:16:10;;;;;;;1.50;0.90;;;13.90;95.00;;;;;;5099160;28;20542;-84
2023/05/30 06:18:37;;;;;;;1.47;1.00;;;14.00;95.00;;;;;;5103954;28;20506;-86
2023/05/30 06:21:04;;;;;;;1.50;1.00;;;14.10;94.40;;;;;;5101302;28;20480;-82
2023/05/30 06:23:31;;;;;;;1.50;1.00;;;14.20;94.50;;;;;;5104363;28;20464;-82
2023/05/30 06:25:58;;;;;;;1.50;1.00;;;14.20;93.60;;;;;;5094595;28;21596;-81
2023/05/30 06:28:25;;;;;;;1.50;1.00;;;14.30;93.70;;;;;;5105550;27;20470;-80
2023/05/30 06:30:52;;;;;;;1.50;1.00;;;14.40;93.50;;;;;;5094708;28;20480;-80
2023/05/30 06:33:20;;;;;;;1.50;1.10;;;14.60;93.30;;;;;;5103868;28;20479;-81
2023/05/30 06:35:47;;;;;;;1.50;1.00;;;14.80;92.30;;;;;;5099873;28;20544;-80
2023/05/30 06:38:15;;;;;;;1.50;0.90;;;15.00;91.90;;;;;;5101621;28;20659;-80
2023/05/30 06:40:41;;;;;;;1.40;0.90;;;15.30;91.10;;;;;;5109872;28;20475;-80
2023/05/30 06:43:08;;;;;;;1.50;1.00;;;15.40;89.80;;;;;;5090876;28;20468;-80
2023/05/30 06:45:35;;;;;;;1.50;1.10;;;15.30;90.20;;;;;;5106925;28;20459;-83
2023/05/30 06:48:02;;;;;;;1.50;1.00;;;15.50;89.40;;;;;;5093838;28;21335;-82
2023/05/30 06:50:35;;;;;;;1.40;0.90;;;15.50;89.50;;;;;;5108736;28;20483;-84
2023/05/30 06:53:02;;;;;;;1.47;0.90;;;15.60;90.60;;;;;;5101071;28;20619;-82
2023/05/30 06:55:29;;;;;;;1.50;0.90;;;15.80;88.80;;;;;;5112186;28;20471;-84
2023/05/30 06:57:56;;;;;;;1.50;1.00;;;16.00;88.80;;;;;;5100079;28;20555;-84
2023/05/30 07:00:23;;;;;;;1.50;0.90;;;16.20;88.30;;;;;;5110332;28;21198;-86
2023/05/30 07:02:51;;;;;;;1.50;1.00;;;16.30;88.80;;;;;;5098376;28;20482;-85
2023/05/30 07:05:18;;;;;;;1.50;1.10;;;16.50;88.10;;;;;;5115992;28;20543;-82
2023/05/30 07:07:46;;;;;;;1.50;1.00;;;16.70;87.90;;;;;;5096238;28;20475;-82
2023/05/30 07:10:13;;;;;;;1.43;0.90;;;16.90;85.90;;;;;;5108796;28;20467;-85
2023/05/30 07:12:40;;;;;;;1.43;0.90;;;17.00;85.50;;;;;;5096915;28;20471;-84
2023/05/30 07:15:09;;;;;;;1.50;0.90;;;17.00;86.00;;;;;;5112347;28;21009;-84
2023/05/30 07:17:37;;;;;;;4.23;3.83;;;16.90;85.70;;;;;;5101455;28;20500;-85
2023/05/30 07:20:08;;;;;;;1.40;0.90;;;16.90;86.00;;;;;;5113061;28;20475;-84
2023/05/30 07:22:39;;;;;;;1.50;1.20;;;16.90;86.00;;;;;;5096596;28;20879;-85
2023/05/30 07:25:08;;;;;;;1.43;0.93;;;16.90;85.80;;;;;;5112864;28;20558;-86
2023/05/30 07:27:35;;;;;;;1.40;0.90;;;17.00;86.30;;;;;;5099926;28;20483;-86
2023/05/30 07:30:03;;;;;;;1.50;1.00;;;17.10;86.00;;;;;;5110590;28;20476;-87
2023/05/30 07:32:30;;;;;;;1.50;0.90;;;17.30;84.60;;;;;;5104943;28;20478;-83
2023/05/30 07:34:57;;;;;;;1.50;1.10;;;17.60;85.00;;;;;;5110712;28;20520;-85
2023/05/30 07:37:27;;;;;;;1.43;0.90;;;17.80;82.70;;;;;;5095968;28;20475;-82
2023/05/30 07:39:54;;;;;;;1.50;0.90;;;18.00;83.40;;;;;;5113751;28;21050;-84
2023/05/30 07:42:27;;;;;;;1.47;0.90;;;18.10;83.50;;;;;;5100604;28;20539;-83
2023/05/30 07:44:57;;;;;;;1.50;1.00;;;18.10;82.80;;;;;;5111995;28;20504;-84
2023/05/30 07:47:24;;;;;;;2.70;2.40;;;18.10;82.70;;;;;;5100813;28;20499;-84
2023/05/30 07:49:51;;;;;;;2.23;1.50;;;18.00;83.00;;;;;;5107458;28;20777;-81
2023/05/30 07:52:21;;;;;;;1.43;0.90;;;17.90;82.70;;;;;;5099320;28;20478;-81
2023/05/30 07:54:48;;;;;;;1.50;1.10;;;18.00;82.70;;;;;;5111767;27;20523;-84
2023/05/30 07:57:15;;;;;;;1.50;1.00;;;18.00;83.10;;;;;;5103059;28;20479;-83
2023/05/30 07:59:44;;;;;;;1.47;0.90;;;18.10;82.70;;;;;;5113000;28;20455;-84
2023/05/30 08:02:11;;;;;;;1.43;0.90;;;18.00;81.60;;;;;;5097894;28;20554;-86
2023/05/30 08:04:39;;;;;;;1.47;0.90;;;18.00;83.00;;;;;;5112605;28;21068;-85
2023/05/30 08:07:11;;;;;;;1.50;0.90;;;18.10;82.80;;;;;;5101983;28;20524;-83
2023/05/30 08:09:37;;;;;;;1.50;0.90;;;18.30;82.50;;;;;;5113753;28;20474;-85
2023/05/30 08:12:07;;;;;;;1.50;0.90;;;18.40;82.60;;;;;;5097587;28;20483;-82
2023/05/30 08:14:37;;;;;;;1.47;0.90;;;18.50;81.70;;;;;;5113234;27;20452;-84
2023/05/30 08:17:12;;;;;;;1.40;0.90;;;18.60;81.40;;;;;;5086803;28;20971;-83
2023/05/30 08:19:44;;;;;;;1.50;1.00;;;18.80;81.40;;;;;;5115603;28;20447;-87
2023/05/30 08:22:11;;;;;;;1.47;0.90;;;19.00;81.00;;;;;;5101143;28;20463;-83
2023/05/30 08:24:41;;;;;;;1.43;0.90;;;19.20;80.40;;;;;;5116951;28;20571;-82
2023/05/30 08:27:12;;;;;;;1.47;0.90;;;19.40;79.70;;;;;;5100435;28;20501;-81
2023/05/30 08:29:40;;;;;;;1.47;0.90;;;19.50;79.40;;;;;;5117996;27;20464;-84
2023/05/30 08:32:09;;;;;;;2.20;2.00;;;19.40;77.90;;;;;;5102858;28;20468;-82
2023/05/30 08:34:42;;;;;;;1.43;0.90;;;19.40;78.50;;;;;;5111405;28;20466;-82
2023/05/30 08:37:11;;;;;;;3.73;3.43;;;19.50;79.00;;;;;;5095526;28;20980;-82
2023/05/30 08:39:39;;;;;;;1.50;0.90;;;19.50;78.10;;;;;;5111319;28;20451;-85
2023/05/30 08:42:07;;;;;;;1.50;0.90;;;19.50;78.40;;;;;;5098957;28;20476;-85
2023/05/30 08:44:34;;;;;;;1.43;0.90;;;19.50;78.10;;;;;;5111702;28;20483;-84
2023/05/30 08:47:12;;;;;;;1.50;0.90;;;19.60;78.70;;;;;;5102229;28;20960;-84
2023/05/30 08:49:42;;;;;;;1.47;0.90;;;19.80;80.30;;;;;;5111744;28;20464;-85
2023/05/30 08:52:13;;;;;;;1.47;0.90;;;19.80;79.00;;;;;;5094248;28;20486;-84
2023/05/30 08:54:45;;;;;;;1.60;1.20;;;20.00;77.80;;;;;;5111436;28;20464;-83
2023/05/30 08:57:18;;;;;;;1.50;0.90;;;19.90;77.30;;;;;;5094338;28;21150;-84
2023/05/30 08:59:46;;;;;;;1.50;0.90;;;20.00;77.10;;;;;;5112166;28;20495;-80
2023/05/30 09:02:14;;;;;;;1.50;0.90;;;20.10;77.80;;;;;;5097798;28;20611;-84
2023/05/30 09:04:45;;;;;;;1.47;0.90;;;20.20;77.30;;;;;;5110214;28;20523;-82
2023/05/30 09:07:15;;;;;;;1.50;0.90;;;20.30;77.30;;;;;;5091704;28;20475;-83
2023/05/30 09:09:45;;;;;;;1.70;1.37;;;20.50;78.20;;;;;;5112485;28;20492;-82
2023/05/30 09:12:13;;;;;;;1.43;0.90;;;20.70;76.60;;;;;;5096185;28;20475;-83
2023/05/30 09:14:40;;;;;;;1.63;1.40;;;20.70;76.50;;;;;;5109697;28;20532;-81
2023/05/30 09:17:07;;;;;;;1.43;0.90;;;20.80;77.70;;;;;;5096134;27;20583;-83
2023/05/30 09:19:38;;;;;;;1.50;0.90;;;21.00;76.10;;;;;;5108711;28;20463;-83
2023/05/30 09:22:18;;;;;;;1.50;0.80;;;21.10;76.20;;;;;;5097815;28;20479;-82
2023/05/30 09:24:56;;;;;;;1.50;0.90;;;21.10;75.80;;;;;;5108827;28;20548;-84
2023/05/30 09:27:26;;;;;;;1.43;0.90;;;21.20;74.80;;;;;;5093580;28;20754;-84
2023/05/30 09:29:53;;;;;;;1.50;0.90;;;21.30;74.30;;;;;;5113739;27;20466;-81
2023/05/30 09:32:21;;;;;;;1.47;0.90;;;21.30;74.30;;;;;;5096115;28;20513;-83
2023/05/30 09:34:56;;;;;;;1.50;1.00;;;21.30;73.90;;;;;;5107705;28;20529;-83
2023/05/30 09:37:50;;;;;;;1.60;1.30;;;21.40;74.00;;;;;;5095565;28;20527;-80
2023/05/30 09:40:17;;;;;;;1.50;0.90;;;21.60;73.80;;;;;;5109892;28;20862;-85
2023/05/30 09:42:50;;;;;;;1.47;0.90;;;21.90;74.00;;;;;;5098571;28;20472;-85
2023/05/30 09:45:19;;;;;;;1.70;1.17;;;22.10;72.90;;;;;;5110502;28;20438;-81
2023/05/30 09:47:49;;;;;;;1.83;1.73;;;22.20;73.60;;;;;;5099083;28;20495;-86
2023/05/30 09:50:17;;;;;;;1.50;0.90;;;22.20;74.70;;;;;;5114931;28;20475;-84
2023/05/30 09:52:51;;;;;;;1.47;0.90;;;22.30;73.50;;;;;;5101694;28;20480;-88
2023/05/30 09:55:38;;;;;;;1.80;1.50;;;22.40;72.40;;;;;;5112210;28;20456;-86
2023/05/30 09:58:05;;;;;;;1.47;0.87;;;22.40;71.10;;;;;;5095950;28;20468;-83
2023/05/30 10:00:37;;;;;;;1.47;0.80;;;22.30;70.90;;;;;;5111706;28;20567;-81
2023/05/30 10:03:04;;;;;;;1.47;0.90;;;22.20;70.60;;;;;;5096034;28;20486;-83
2023/05/30 10:05:31;;;;;;;1.47;0.80;;;22.40;71.10;;;;;;5109702;28;20547;-80
2023/05/30 10:07:59;;;;;;;1.47;0.80;;;22.60;71.00;;;;;;5094473;28;20479;-81
2023/05/30 10:10:26;;;;;;;2.50;1.30;;;22.70;70.80;;;;;;5110505;28;20501;-84
2023/05/30 10:12:57;;;;;;;1.43;0.80;;;22.80;71.60;;;;;;5087995;28;21049;-83
2023/05/30 10:15:25;;;;;;;1.80;1.20;;;22.90;71.10;;;;;;5109014;27;20463;-85
2023/05/30 10:17:57;;;;;;;1.43;0.90;;;23.10;72.60;;;;;;5089514;28;20557;-82
2023/05/30 10:20:28;;;;;;;1.50;1.00;;;23.30;70.80;;;;;;5109393;28;20489;-83
2023/05/30 10:22:57;;;;;;;1.60;1.20;;;23.20;70.00;;;;;;5095134;28;20463;-83
2023/05/30 10:25:28;;;;;;;1.50;0.80;;;23.20;69.90;;;;;;5110655;28;20447;-83
2023/05/30 10:27:58;;;;;;;1.40;0.80;;;23.20;69.90;;;;;;5094929;28;20528;-84
2023/05/30 10:30:28;;;;;;;1.40;1.00;;;23.20;70.00;;;;;;5107500;28;20567;-83
2023/05/30 10:33:02;;;;;;;1.47;0.80;;;23.20;70.90;;;;;;5090628;28;20475;-82
2023/05/30 10:35:35;;;;;;;1.60;1.20;;;23.40;70.60;;;;;;5106023;28;20822;-81
2023/05/30 10:38:04;;;;;;;1.50;0.90;;;23.30;69.80;;;;;;5092353;28;20487;-83
2023/05/30 10:40:53;;;;;;;1.40;0.90;;;23.30;70.30;;;;;;5113707;28;20679;-86
2023/05/30 10:43:37;;;;;;;1.50;0.90;;;23.40;70.50;;;;;;5083615;28;20466;-84
2023/05/30 10:46:23;;;;;;;1.50;1.10;;;23.50;68.80;;;;;;5099098;28;20465;-82
2023/05/30 10:48:54;;;;;;;1.40;0.90;;;23.70;70.00;;;;;;5105906;28;20456;-83
2023/05/30 10:51:51;;;;;;;1.40;0.90;;;23.70;69.20;;;;;;5097705;28;20472;-85
2023/05/30 10:54:23;;;;;;;1.40;0.80;;;23.80;69.60;;;;;;5109095;28;20485;-81
2023/05/30 10:56:51;;;;;;;2.90;2.60;;;24.00;68.60;;;;;;5095169;28;20471;-82
2023/05/30 10:59:20;;;;;;;1.50;0.80;;;23.90;68.70;;;;;;5110824;28;20843;-81
2023/05/30 11:02:01;;;;;;;1.43;0.80;;;24.00;68.40;;;;;;5096448;28;20483;-82
2023/05/30 11:04:32;;;;;;;1.57;0.90;;;24.10;68.60;;;;;;5108148;28;20485;-81
2023/05/30 11:07:03;;;;;;;1.67;1.10;;;24.20;69.20;;;;;;5096461;28;20643;-81
2023/05/30 11:09:30;;;;;;;1.47;0.80;;;24.20;67.10;;;;;;5110266;28;20451;-83
2023/05/30 11:12:01;;;;;;;1.40;0.80;;;24.20;65.70;;;;;;5097587;28;20507;-82
2023/05/30 11:14:39;;;;;;;1.40;0.80;;;24.40;65.70;;;;;;5112607;28;20447;-83
2023/05/30 11:17:10;;;;;;;2.30;2.07;;;24.50;66.90;;;;;;5098783;28;20554;-81
2023/05/30 11:19:38;;;;;;;1.47;0.80;;;24.70;66.60;;;;;;5109889;28;20459;-84
2023/05/30 11:22:15;;;;;;;1.50;1.00;;;24.80;66.20;;;;;;5092915;28;20539;-82
2023/05/30 11:24:43;;;;;;;1.43;0.80;;;24.80;66.60;;;;;;5112670;28;20510;-83
2023/05/30 11:27:12;;;;;;;1.40;0.90;;;24.70;66.10;;;;;;5097107;28;20599;-82
2023/05/30 11:29:58;;;;;;;1.40;0.90;;;24.70;65.60;;;;;;5112913;28;20481;-83
2023/05/30 11:32:28;;;;;;;1.40;0.80;;;24.80;63.20;;;;;;5099787;27;21124;-83
2023/05/30 11:34:58;;;;;;;1.47;0.80;;;24.70;61.30;;;;;;5113894;28;20463;-83
2023/05/30 11:37:37;;;;;;;1.47;0.80;;;24.70;62.20;;;;;;5104151;28;20483;-82
2023/05/30 11:40:12;;;;;;;1.40;0.80;;;24.60;62.00;;;;;;5112619;28;20554;-83
2023/05/30 11:42:39;;;;;;;1.40;0.80;;;24.50;63.40;;;;;;5100170;28;20480;-86
2023/05/30 11:45:10;;;;;;;1.40;0.80;;;24.70;67.10;;;;;;5117014;28;20515;-82
2023/05/30 11:47:37;;;;;;;1.43;0.90;;;24.90;62.90;;;;;;5107218;27;20574;-83
2023/05/30 11:50:04;;;;;;;1.43;0.90;;;25.00;61.10;;;;;;5114905;28;20584;-81
2023/05/30 11:52:39;;;;;;;1.60;1.20;;;25.10;62.50;;;;;;5082202;28;21062;-81
2023/05/30 11:55:11;;;;;;;1.40;0.80;;;25.20;63.10;;;;;;5110966;28;20551;-82
2023/05/30 11:57:38;;;;;;;1.40;0.80;;;25.40;62.60;;;;;;5094672;27;20467;-84
2023/05/30 12:00:11;;;;;;;1.43;0.83;;;25.50;61.80;;;;;;5111598;28;20496;-85
2023/05/30 12:02:40;;;;;;;1.90;1.50;;;25.60;63.30;;;;;;5093607;28;20483;-82
2023/05/30 12:05:10;;;;;;;1.43;0.80;;;25.70;61.80;;;;;;5110643;28;20494;-84
2023/05/30 12:07:40;;;;;;;1.40;0.80;;;25.60;62.90;;;;;;5094007;28;20509;-84
2023/05/30 12:10:10;;;;;;;1.50;1.00;;;25.40;62.80;;;;;;5112441;27;21038;-84
2023/05/30 12:12:37;;;;;;;1.43;0.90;;;25.50;62.60;;;;;;5099357;28;20478;-84
2023/05/30 12:15:09;;;;;;;1.47;0.80;;;25.40;62.30;;;;;;5116443;28;20451;-84
2023/05/30 12:17:40;;;;;;;1.43;0.80;;;25.40;62.40;;;;;;5095776;28;20475;-83
2023/05/30 12:20:09;;;;;;;1.43;0.80;;;25.20;61.60;;;;;;5116423;27;20674;-80
2023/05/30 12:22:42;;;;;;;1.40;0.80;;;25.20;63.80;;;;;;5098786;27;20472;-81
2023/05/30 12:25:10;;;;;;;1.43;0.90;;;25.20;61.60;;;;;;5113231;28;20587;-83
2023/05/30 12:27:42;;;;;;;1.40;0.90;;;25.00;62.70;;;;;;5102118;28;20562;-84
2023/05/30 12:30:20;;;;;;;1.40;0.80;;;25.10;63.00;;;;;;5114031;28;20476;-84
2023/05/30 12:32:48;;;;;;;1.47;0.80;;;25.00;64.60;;;;;;5101405;28;21004;-84
2023/05/30 12:35:44;;;;;;;1.47;0.87;;;25.10;63.60;;;;;;5116410;28;20742;-84
2023/05/30 12:38:13;;;;;;;1.47;0.90;;;25.40;63.30;;;;;;5104221;28;20631;-85
2023/05/30 12:40:46;;;;;;;1.43;0.80;;;25.70;62.00;;;;;;5114398;28;20575;-85
2023/05/30 12:43:14;;;;;;;1.43;0.80;;;25.60;63.40;;;;;;5084885;28;20593;-83
2023/05/30 12:45:44;;;;;;;1.47;0.80;;;25.70;62.50;;;;;;5115513;28;20497;-83
2023/05/30 12:48:11;;;;;;;1.50;0.87;;;25.80;60.60;;;;;;5096617;28;20550;-85
2023/05/30 12:50:38;;;;;;;1.47;0.80;;;25.80;60.20;;;;;;5109814;28;20482;-81
2023/05/30 12:53:05;;;;;;;1.43;0.80;;;26.00;61.90;;;;;;5098635;28;20467;-82
2023/05/30 12:55:31;;;;;;;1.40;0.80;;;25.90;60.80;;;;;;5111962;28;20451;-82
2023/05/30 12:58:02;;;;;;;1.43;0.90;;;25.80;60.00;;;;;;5092978;28;20477;-82